Time;durP1;ratioP1;P1;durP2;ratioP2;P2;SDS_P1;SDS_P2;PMS_P1;PMS_P2;Temp;Humidity;BMP_temperature;BMP_pressure;BME280_temperature;BME280_humidity;BME280_pressure;Samples;Min_cycle;Max_cycle;Signal;HPM_P1;HPM_P2
2022/05/02 00:00:11;;;;;;;14.13;12.83;;;11.10;99.90;;;;;;5010974;28;20438;-70
2022/05/02 00:02:38;;;;;;;15.17;13.77;;;11.10;99.90;;;;;;5009687;28;20936;-70
2022/05/02 00:05:05;;;;;;;14.03;12.83;;;11.00;99.90;;;;;;5011407;28;20464;-74
2022/05/02 00:07:30;;;;;;;14.57;12.90;;;11.00;99.90;;;;;;5010499;28;20448;-74
2022/05/02 00:09:56;;;;;;;14.30;12.90;;;11.00;99.90;;;;;;5010466;28;20440;-70
2022/05/02 00:12:22;;;;;;;13.83;12.40;;;11.10;99.90;;;;;;5009594;28;20193;-70
2022/05/02 00:14:48;;;;;;;14.07;12.70;;;11.20;99.90;;;;;;5011366;28;20237;-70
2022/05/02 00:17:15;;;;;;;13.50;12.30;;;11.20;99.90;;;;;;5014866;28;20249;-70
2022/05/02 00:19:40;;;;;;;14.20;12.73;;;11.20;99.90;;;;;;5015445;28;20452;-70
2022/05/02 00:22:06;;;;;;;14.77;13.37;;;11.30;99.90;;;;;;5014654;28;20441;-74
2022/05/02 00:24:32;;;;;;;15.30;13.83;;;11.40;99.90;;;;;;5014960;28;20214;-70
2022/05/02 00:26:58;;;;;;;14.30;13.00;;;11.30;99.90;;;;;;5014387;28;20199;-69
2022/05/02 00:29:24;;;;;;;14.30;13.00;;;11.20;99.90;;;;;;5012906;28;20430;-69
2022/05/02 00:31:50;;;;;;;13.83;12.60;;;11.20;99.90;;;;;;5016181;28;20173;-70
2022/05/02 00:34:16;;;;;;;13.97;12.70;;;11.30;99.90;;;;;;5014101;28;20437;-70
2022/05/02 00:36:42;;;;;;;14.63;13.30;;;11.30;99.90;;;;;;5015852;28;20425;-70
2022/05/02 00:39:08;;;;;;;14.03;12.73;;;11.30;99.90;;;;;;5029691;28;20198;-74
2022/05/02 00:41:34;;;;;;;15.20;13.80;;;11.30;99.90;;;;;;5013895;28;20932;-70
2022/05/02 00:43:59;;;;;;;14.43;13.13;;;11.30;99.90;;;;;;5013869;28;20450;-70
2022/05/02 00:46:26;;;;;;;14.00;12.70;;;11.30;99.90;;;;;;5014997;28;20410;-70
2022/05/02 00:48:53;;;;;;;14.40;13.10;;;11.40;99.90;;;;;;5014117;28;20234;-70
2022/05/02 00:51:19;;;;;;;15.13;13.73;;;11.40;99.90;;;;;;5014152;28;20474;-69
2022/05/02 00:53:49;;;;;;;14.00;12.70;;;11.40;99.90;;;;;;5014345;28;20494;-69
2022/05/02 00:56:22;;;;;;;15.10;13.50;;;11.50;99.90;;;;;;5013194;28;20956;-69
2022/05/02 00:58:53;;;;;;;13.43;12.20;;;11.50;99.90;;;;;;5014880;28;20465;-70
2022/05/02 01:01:20;;;;;;;14.83;13.30;;;11.50;99.90;;;;;;5013715;28;20495;-70
2022/05/02 01:03:46;;;;;;;14.10;12.80;;;11.50;99.90;;;;;;5014782;28;20835;-70
2022/05/02 01:08:56;;;;;;;13.53;12.40;;;11.50;99.90;;;;;;5013168;28;20619;-70
2022/05/02 01:11:22;;;;;;;14.23;12.97;;;11.50;99.90;;;;;;5012713;28;20430;-70
2022/05/02 01:13:49;;;;;;;15.70;14.03;;;11.50;99.90;;;;;;5012148;28;20485;-70
2022/05/02 01:16:21;;;;;;;16.30;14.70;;;11.60;99.90;;;;;;5013659;28;20594;-70
2022/05/02 01:18:51;;;;;;;14.70;13.20;;;11.60;99.90;;;;;;5013897;28;20496;-70
2022/05/02 01:21:19;;;;;;;15.30;13.80;;;11.60;99.80;;;;;;5013690;28;20441;-70
2022/05/02 01:23:47;;;;;;;14.90;13.30;;;11.60;99.60;;;;;;5013502;28;20440;-69
2022/05/02 01:26:13;;;;;;;15.17;13.27;;;11.60;99.50;;;;;;5013514;28;20894;-70
2022/05/02 01:28:46;;;;;;;15.47;13.97;;;11.60;99.50;;;;;;5012953;28;20438;-70
2022/05/02 01:31:13;;;;;;;14.23;13.03;;;11.60;99.60;;;;;;5013205;28;20441;-70
2022/05/02 01:33:39;;;;;;;15.90;14.30;;;11.70;99.90;;;;;;5014221;28;20429;-70
2022/05/02 01:36:05;;;;;;;13.90;12.57;;;11.60;99.80;;;;;;5014301;28;20441;-70
2022/05/02 01:38:31;;;;;;;14.20;12.87;;;11.60;99.70;;;;;;5013102;28;20207;-69
2022/05/02 01:40:57;;;;;;;13.73;12.47;;;11.60;99.90;;;;;;5012103;28;20442;-70
2022/05/02 01:43:22;;;;;;;14.17;12.83;;;11.60;99.90;;;;;;5012938;28;20181;-69
2022/05/02 01:45:48;;;;;;;16.00;14.00;;;11.60;99.90;;;;;;5014271;28;20767;-70
2022/05/02 01:48:14;;;;;;;14.83;13.40;;;11.50;99.90;;;;;;5011368;28;20563;-70
2022/05/02 01:50:40;;;;;;;16.23;14.60;;;11.50;99.90;;;;;;5012751;28;20191;-71
2022/05/02 01:53:06;;;;;;;15.70;14.20;;;11.50;99.90;;;;;;5012794;28;20452;-69
2022/05/02 01:55:31;;;;;;;15.70;14.10;;;11.50;99.90;;;;;;5012466;28;20179;-69
2022/05/02 01:57:57;;;;;;;14.90;13.50;;;11.50;99.90;;;;;;5013478;28;20203;-69
2022/05/02 02:00:23;;;;;;;15.53;13.97;;;11.50;99.90;;;;;;5013230;28;20202;-69
2022/05/02 02:02:49;;;;;;;15.83;14.17;;;11.50;99.90;;;;;;5013393;28;20594;-69
2022/05/02 02:07:59;;;;;;;15.90;14.40;;;11.50;99.90;;;;;;5013604;28;20190;-69
2022/05/02 02:10:24;;;;;;;14.90;13.53;;;11.60;99.90;;;;;;5012237;28;20448;-69
2022/05/02 02:12:50;;;;;;;14.37;13.07;;;11.50;99.90;;;;;;5014541;28;20189;-69
2022/05/02 02:15:16;;;;;;;16.60;13.47;;;11.50;99.90;;;;;;5012429;28;20239;-70
2022/05/02 02:17:42;;;;;;;17.00;15.30;;;11.50;99.90;;;;;;5013380;28;20223;-70
2022/05/02 02:20:09;;;;;;;18.70;14.37;;;11.50;99.90;;;;;;5012083;28;20470;-69
2022/05/02 02:22:36;;;;;;;15.47;13.97;;;11.50;99.90;;;;;;5012049;28;20436;-69
2022/05/02 02:25:04;;;;;;;16.53;14.80;;;11.50;99.90;;;;;;5012485;28;20461;-70
2022/05/02 02:27:30;;;;;;;15.50;13.93;;;11.40;99.90;;;;;;5011445;28;21298;-69
2022/05/02 02:29:55;;;;;;;14.67;13.27;;;11.40;99.90;;;;;;5012855;28;20912;-69
2022/05/02 02:32:21;;;;;;;16.63;14.87;;;11.40;99.90;;;;;;5011828;28;20429;-69
2022/05/02 02:34:47;;;;;;;15.33;13.93;;;11.40;99.90;;;;;;5012809;28;20179;-69
2022/05/02 02:37:12;;;;;;;16.30;14.40;;;11.40;99.90;;;;;;5012080;28;20230;-74
2022/05/02 02:39:38;;;;;;;14.77;13.27;;;11.50;99.90;;;;;;5012077;28;20195;-69
2022/05/02 02:42:04;;;;;;;15.27;13.80;;;11.40;99.90;;;;;;5012965;28;20187;-70
2022/05/02 02:44:30;;;;;;;15.77;14.13;;;11.40;99.90;;;;;;5011609;28;20200;-70
2022/05/02 02:46:56;;;;;;;14.80;13.40;;;11.30;99.90;;;;;;5012800;28;20440;-70
2022/05/02 02:49:21;;;;;;;14.50;12.83;;;11.30;99.90;;;;;;5011416;28;20288;-70
2022/05/02 02:51:48;;;;;;;14.40;12.80;;;11.30;99.90;;;;;;5013153;28;20178;-70
2022/05/02 02:54:14;;;;;;;15.00;13.60;;;11.30;99.90;;;;;;5012108;28;20266;-74
2022/05/02 02:56:39;;;;;;;15.07;13.57;;;11.20;99.90;;;;;;5013120;28;20493;-69
2022/05/02 02:59:05;;;;;;;15.00;13.60;;;11.20;99.90;;;;;;5011552;28;20214;-70
2022/05/02 03:01:31;;;;;;;15.30;13.80;;;11.20;99.90;;;;;;5011177;28;20193;-70
2022/05/02 03:03:57;;;;;;;15.00;13.50;;;11.20;99.90;;;;;;5011315;28;20194;-72
2022/05/02 03:06:24;;;;;;;17.13;14.87;;;11.20;99.90;;;;;;5012145;28;20624;-70
2022/05/02 03:08:50;;;;;;;14.10;12.87;;;11.20;99.90;;;;;;5012302;28;20509;-70
2022/05/02 03:11:16;;;;;;;15.13;13.13;;;11.10;99.90;;;;;;5012535;28;20517;-74
2022/05/02 03:13:42;;;;;;;15.97;14.33;;;11.10;99.90;;;;;;5012489;28;20535;-70
2022/05/02 03:16:10;;;;;;;14.67;13.23;;;11.10;99.90;;;;;;5011427;28;20452;-68
2022/05/02 03:18:36;;;;;;;15.23;13.70;;;11.20;99.90;;;;;;5009262;28;20812;-68
2022/05/02 03:21:02;;;;;;;14.70;13.20;;;11.10;99.90;;;;;;5011409;28;20442;-68
2022/05/02 03:23:27;;;;;;;15.27;13.67;;;11.00;99.90;;;;;;5012099;28;20516;-68
2022/05/02 03:25:53;;;;;;;14.63;13.23;;;11.00;99.90;;;;;;5012681;28;20475;-68
2022/05/02 03:28:19;;;;;;;15.30;13.90;;;11.00;99.90;;;;;;5012149;28;20287;-69
2022/05/02 03:30:44;;;;;;;15.20;13.70;;;11.00;99.90;;;;;;5010811;28;20658;-68
2022/05/02 03:33:10;;;;;;;15.30;13.80;;;11.00;99.90;;;;;;5012861;28;20175;-68
2022/05/02 03:35:36;;;;;;;15.13;13.63;;;10.90;99.90;;;;;;5011762;28;20330;-68
2022/05/02 03:38:01;;;;;;;15.70;14.20;;;10.80;99.90;;;;;;5010796;28;20217;-68
2022/05/02 03:40:27;;;;;;;17.23;15.40;;;10.80;99.90;;;;;;5011741;28;20543;-68
2022/05/02 03:42:53;;;;;;;15.50;13.83;;;10.80;99.90;;;;;;5012843;28;20239;-68
2022/05/02 03:45:19;;;;;;;15.80;14.20;;;10.80;99.90;;;;;;5011049;28;20426;-73
2022/05/02 03:47:45;;;;;;;16.23;14.33;;;10.80;99.90;;;;;;5012505;28;20178;-68
2022/05/02 03:50:10;;;;;;;17.40;13.97;;;10.80;99.90;;;;;;4993101;28;20263;-68
2022/05/02 03:52:36;;;;;;;16.77;14.07;;;10.80;99.90;;;;;;5011653;28;20185;-68
2022/05/02 03:55:03;;;;;;;17.17;15.47;;;10.80;99.90;;;;;;5011293;28;20189;-69
2022/05/02 03:57:29;;;;;;;16.90;15.40;;;10.80;99.90;;;;;;5010983;28;20207;-69
2022/05/02 03:59:54;;;;;;;15.67;14.17;;;10.80;99.90;;;;;;5012407;28;20947;-68
2022/05/02 04:02:20;;;;;;;15.23;13.73;;;10.70;99.90;;;;;;5010317;28;20252;-74
2022/05/02 04:04:46;;;;;;;14.93;13.43;;;10.70;99.90;;;;;;5011931;28;20257;-69
2022/05/02 04:07:11;;;;;;;17.40;15.60;;;10.80;99.90;;;;;;5010822;28;20183;-69
2022/05/02 04:09:37;;;;;;;17.80;15.80;;;10.80;99.90;;;;;;5010917;28;20173;-68
2022/05/02 04:12:03;;;;;;;15.43;13.83;;;10.80;99.90;;;;;;5011620;28;20218;-68
2022/05/02 04:14:29;;;;;;;16.03;14.17;;;10.80;99.90;;;;;;5011576;28;20181;-69
2022/05/02 04:16:54;;;;;;;15.97;14.27;;;10.90;99.90;;;;;;5010822;28;20853;-69
2022/05/02 04:19:20;;;;;;;16.00;14.33;;;10.90;99.90;;;;;;5025945;28;20203;-69
2022/05/02 04:21:46;;;;;;;16.10;14.40;;;10.90;99.90;;;;;;5012557;28;20200;-68
2022/05/02 04:24:12;;;;;;;17.77;15.40;;;10.80;99.90;;;;;;5010819;28;20609;-68
2022/05/02 04:26:38;;;;;;;16.37;14.23;;;10.90;99.90;;;;;;5010705;28;20176;-69
2022/05/02 04:29:03;;;;;;;15.03;13.50;;;10.90;99.90;;;;;;5011410;28;20444;-69
2022/05/02 04:31:29;;;;;;;15.70;14.20;;;10.90;99.90;;;;;;5011322;28;20193;-69
2022/05/02 04:33:55;;;;;;;17.00;14.13;;;10.90;99.90;;;;;;5012556;28;20179;-70
2022/05/02 04:36:20;;;;;;;15.50;13.90;;;10.90;99.90;;;;;;5009963;28;20186;-70
2022/05/02 04:38:46;;;;;;;16.63;13.90;;;10.90;99.90;;;;;;5009482;28;20630;-70
2022/05/02 04:41:14;;;;;;;16.80;15.10;;;11.10;99.90;;;;;;5010222;28;20281;-69
2022/05/02 04:43:41;;;;;;;16.83;13.87;;;11.00;99.90;;;;;;5011266;28;20187;-70
2022/05/02 04:46:07;;;;;;;19.77;14.80;;;11.10;99.90;;;;;;5011609;28;20797;-70
2022/05/02 04:48:33;;;;;;;16.77;15.07;;;11.10;99.90;;;;;;5010990;28;20582;-70
2022/05/02 04:50:59;;;;;;;16.97;15.17;;;11.10;99.90;;;;;;5010741;28;20519;-70
2022/05/02 04:53:24;;;;;;;19.20;15.10;;;11.10;99.90;;;;;;5010835;28;20201;-70
2022/05/02 04:55:50;;;;;;;16.13;14.60;;;11.10;99.90;;;;;;5012366;28;20183;-70
2022/05/02 04:58:16;;;;;;;15.90;14.30;;;11.10;99.90;;;;;;5011191;28;20253;-70
2022/05/02 05:00:43;;;;;;;17.10;15.37;;;11.20;99.90;;;;;;5010871;28;20215;-70
2022/05/02 05:03:09;;;;;;;17.47;15.70;;;11.20;99.90;;;;;;5014395;28;20191;-70
2022/05/02 05:05:34;;;;;;;15.67;14.17;;;11.20;99.90;;;;;;5014656;28;20434;-70
2022/05/02 05:08:00;;;;;;;17.13;15.43;;;11.20;99.90;;;;;;5014437;28;20697;-69
2022/05/02 05:10:26;;;;;;;16.40;14.70;;;11.10;99.90;;;;;;5014557;28;20187;-70
2022/05/02 05:13:05;;;;;;;17.73;15.43;;;11.10;99.90;;;;;;5015101;28;20262;-70
2022/05/02 05:18:56;;;;;;;16.50;14.80;;;11.10;99.90;;;;;;5015607;28;20917;-69
2022/05/02 05:21:32;;;;;;;16.80;15.07;;;11.10;99.90;;;;;;5013494;28;20511;-70
2022/05/02 05:24:16;;;;;;;20.10;16.20;;;11.10;99.90;;;;;;5014779;28;20469;-70
2022/05/02 05:26:46;;;;;;;19.00;15.00;;;11.10;99.90;;;;;;5015138;28;20496;-70
2022/05/02 05:29:30;;;;;;;16.63;15.00;;;11.10;99.90;;;;;;5015179;28;20449;-70
2022/05/02 05:32:13;;;;;;;16.57;15.07;;;11.20;99.90;;;;;;5014552;28;20820;-72
2022/05/02 05:34:59;;;;;;;17.87;14.07;;;11.20;99.90;;;;;;5012623;28;20433;-70
2022/05/02 05:37:57;;;;;;;17.50;15.80;;;11.20;99.90;;;;;;4993323;28;20485;-75
2022/05/02 05:40:39;;;;;;;17.07;15.27;;;11.20;99.90;;;;;;5012282;28;20541;-76
2022/05/02 05:43:26;;;;;;;17.67;15.77;;;11.30;99.90;;;;;;5013691;28;20447;-70
2022/05/02 05:46:21;;;;;;;19.17;16.97;;;11.30;99.90;;;;;;4995103;28;20450;-70
2022/05/02 05:49:09;;;;;;;17.63;15.73;;;11.30;99.90;;;;;;4994207;28;20482;-69
2022/05/02 05:51:59;;;;;;;20.30;17.30;;;11.20;99.90;;;;;;4992803;28;20422;-70
2022/05/02 05:54:34;;;;;;;18.57;16.67;;;11.20;99.90;;;;;;4994418;28;20411;-71
2022/05/02 05:57:35;;;;;;;20.77;18.60;;;11.20;99.90;;;;;;5014960;28;20913;-70
2022/05/02 06:00:06;;;;;;;20.03;17.07;;;10.90;99.90;;;;;;4991989;28;21045;-70
2022/05/02 06:03:00;;;;;;;22.00;17.60;;;11.20;99.90;;;;;;5013641;28;20487;-70
2022/05/02 06:05:26;;;;;;;20.97;18.47;;;11.30;99.90;;;;;;5016228;28;20440;-76
2022/05/02 06:07:52;;;;;;;19.93;17.93;;;11.30;99.90;;;;;;5013831;28;20513;-70
2022/05/02 06:10:18;;;;;;;19.37;17.47;;;11.40;99.90;;;;;;5014091;28;20417;-70
2022/05/02 06:12:45;;;;;;;20.00;17.37;;;11.40;99.90;;;;;;5013385;28;20884;-70
2022/05/02 06:20:44;;;;;;;19.80;16.50;;;11.60;99.90;;;;;;5012481;28;20440;-70
2022/05/02 06:23:14;;;;;;;19.03;17.03;;;11.70;99.90;;;;;;5014308;28;20420;-70
2022/05/02 06:25:43;;;;;;;18.67;16.77;;;11.70;99.90;;;;;;5013420;28;20504;-70
2022/05/02 06:28:09;;;;;;;19.50;16.77;;;11.80;99.90;;;;;;5013332;28;20801;-70
2022/05/02 06:30:36;;;;;;;19.70;17.27;;;11.80;99.90;;;;;;5013442;28;20433;-70
2022/05/02 06:33:09;;;;;;;19.13;16.20;;;11.80;99.90;;;;;;5013541;28;20436;-70
2022/05/02 06:36:12;;;;;;;19.43;17.47;;;11.90;99.90;;;;;;5013455;28;20469;-69
2022/05/02 06:39:10;;;;;;;18.83;17.03;;;11.90;99.90;;;;;;5012672;28;20478;-73
2022/05/02 06:41:48;;;;;;;17.83;16.00;;;11.90;99.90;;;;;;5012138;28;20487;-72
2022/05/02 06:44:25;;;;;;;17.60;15.90;;;12.00;99.90;;;;;;5012761;28;20509;-72
2022/05/02 06:47:16;;;;;;;19.07;17.20;;;12.00;99.90;;;;;;5013798;28;20442;-72
2022/05/02 06:49:44;;;;;;;19.57;17.40;;;11.90;99.90;;;;;;5006760;28;20987;-72
2022/05/02 06:52:11;;;;;;;21.47;18.70;;;11.90;99.90;;;;;;5010412;28;20444;-72
2022/05/02 06:54:52;;;;;;;20.40;18.30;;;11.90;99.90;;;;;;5011197;28;20484;-72
2022/05/02 06:57:36;;;;;;;20.07;18.07;;;12.00;99.90;;;;;;5012426;28;20494;-73
2022/05/02 07:00:10;;;;;;;21.43;18.83;;;12.00;99.90;;;;;;5013061;28;20438;-72
2022/05/02 07:03:04;;;;;;;21.90;19.60;;;12.10;99.90;;;;;;5013079;28;20505;-72
2022/05/02 07:05:54;;;;;;;19.87;17.73;;;12.20;99.90;;;;;;5014175;28;20426;-72
2022/05/02 07:08:28;;;;;;;21.30;19.07;;;12.40;99.90;;;;;;5013476;28;20506;-72
2022/05/02 07:11:03;;;;;;;19.60;17.70;;;12.50;99.90;;;;;;5011790;28;20973;-72
2022/05/02 07:13:37;;;;;;;19.97;16.97;;;12.60;99.90;;;;;;5012908;28;20445;-72
2022/05/02 07:16:23;;;;;;;17.30;15.60;;;12.60;99.90;;;;;;5012488;28;20440;-70
2022/05/02 07:19:10;;;;;;;18.10;16.30;;;12.80;99.70;;;;;;5010619;28;20571;-70
2022/05/02 07:21:40;;;;;;;16.97;15.33;;;12.90;99.70;;;;;;5011926;28;20515;-70
2022/05/02 07:24:35;;;;;;;17.17;15.47;;;13.00;99.80;;;;;;5013438;28;20431;-73
2022/05/02 07:27:16;;;;;;;17.50;15.90;;;13.10;99.10;;;;;;4997278;28;20513;-70
2022/05/02 07:29:45;;;;;;;18.77;16.97;;;13.20;99.10;;;;;;5012745;28;20434;-70
2022/05/02 07:32:13;;;;;;;19.20;16.70;;;13.30;99.60;;;;;;5012542;28;20462;-70
2022/05/02 07:34:40;;;;;;;17.07;15.40;;;13.40;98.60;;;;;;5011460;28;20440;-70
2022/05/02 07:37:08;;;;;;;16.57;15.00;;;13.50;98.70;;;;;;5012321;28;20500;-70
2022/05/02 07:39:39;;;;;;;19.30;17.10;;;13.50;97.50;;;;;;5011979;28;20466;-70
2022/05/02 07:42:05;;;;;;;19.33;15.77;;;13.50;98.50;;;;;;5012824;28;20755;-69
2022/05/02 07:44:34;;;;;;;17.27;15.67;;;13.60;98.70;;;;;;5011784;28;20781;-70
2022/05/02 07:47:02;;;;;;;18.63;14.83;;;13.80;98.10;;;;;;5012303;28;20437;-70
2022/05/02 07:49:32;;;;;;;16.37;14.93;;;13.90;97.50;;;;;;5012287;28;20806;-69
2022/05/02 07:52:01;;;;;;;17.27;15.70;;;14.10;98.00;;;;;;5011727;28;20418;-69
2022/05/02 07:54:29;;;;;;;17.03;15.33;;;14.20;98.20;;;;;;5010855;28;20480;-72
2022/05/02 07:57:00;;;;;;;16.83;15.33;;;14.20;97.10;;;;;;5010126;28;20790;-69
2022/05/02 07:59:36;;;;;;;17.47;15.67;;;14.30;97.80;;;;;;5012481;28;20844;-69
2022/05/02 08:02:03;;;;;;;17.63;15.97;;;14.40;97.10;;;;;;5013225;28;20411;-69
2022/05/02 08:04:30;;;;;;;19.37;15.90;;;14.50;96.10;;;;;;5012737;28;20445;-69
2022/05/02 08:07:03;;;;;;;18.13;16.23;;;14.40;96.70;;;;;;4996944;28;20950;-69
2022/05/02 08:10:06;;;;;;;19.50;16.37;;;14.50;96.30;;;;;;5011283;28;20782;-69
2022/05/02 08:12:57;;;;;;;18.70;16.70;;;14.30;97.30;;;;;;5011730;28;20753;-70
2022/05/02 08:15:26;;;;;;;18.53;16.83;;;14.40;97.20;;;;;;5011670;28;20827;-70
2022/05/02 08:18:06;;;;;;;16.93;15.33;;;14.50;97.30;;;;;;5010580;28;20587;-70
2022/05/02 08:20:47;;;;;;;18.40;16.70;;;14.60;96.80;;;;;;5011993;28;20867;-70
2022/05/02 08:27:15;;;;;;;17.73;16.10;;;14.80;96.90;;;;;;5006467;28;20529;-70
2022/05/02 08:30:07;;;;;;;18.40;16.60;;;14.90;95.90;;;;;;5011938;28;20903;-70
2022/05/02 08:32:43;;;;;;;18.03;16.17;;;14.90;95.50;;;;;;5011938;28;20483;-70
2022/05/02 08:35:16;;;;;;;16.20;14.63;;;15.00;96.50;;;;;;5012740;28;20419;-70
2022/05/02 08:37:47;;;;;;;17.37;15.57;;;15.10;95.60;;;;;;5014171;28;20472;-70
2022/05/02 08:40:25;;;;;;;18.30;16.40;;;15.30;96.80;;;;;;5016281;28;20857;-69
2022/05/02 08:43:28;;;;;;;17.00;15.27;;;15.40;97.20;;;;;;5015390;28;20990;-70
2022/05/02 08:46:19;;;;;;;17.93;16.23;;;15.70;96.30;;;;;;5015456;28;20422;-70
2022/05/02 08:49:37;;;;;;;16.33;14.80;;;15.80;95.30;;;;;;5014163;28;20550;-70
2022/05/02 08:52:12;;;;;;;17.13;15.33;;;15.90;94.80;;;;;;5015744;28;20472;-70
2022/05/02 08:54:49;;;;;;;21.00;18.90;;;16.10;94.00;;;;;;5014994;28;20460;-72
2022/05/02 08:57:44;;;;;;;16.23;14.63;;;16.30;94.50;;;;;;5015752;28;20421;-70
2022/05/02 09:00:56;;;;;;;16.93;14.87;;;16.30;93.00;;;;;;5015892;28;20405;-69
2022/05/02 09:03:59;;;;;;;16.87;14.33;;;16.40;93.90;;;;;;4999946;28;20453;-70
2022/05/02 09:07:02;;;;;;;15.83;14.17;;;16.50;93.30;;;;;;5015800;28;20406;-70
2022/05/02 09:10:12;;;;;;;15.40;14.00;;;16.80;94.50;;;;;;5015454;28;20976;-69
2022/05/02 09:13:05;;;;;;;14.50;13.10;;;17.00;92.70;;;;;;5006014;28;20441;-70
2022/05/02 09:15:53;;;;;;;12.90;11.70;;;17.10;93.00;;;;;;5015690;28;20516;-70
2022/05/02 09:18:37;;;;;;;13.37;12.07;;;17.30;92.40;;;;;;5015861;28;20457;-70
2022/05/02 09:21:24;;;;;;;13.93;12.77;;;17.50;91.30;;;;;;5015734;28;20415;-70
2022/05/02 09:24:13;;;;;;;14.10;12.70;;;17.70;91.30;;;;;;5015018;28;20960;-70
2022/05/02 09:27:21;;;;;;;13.83;12.60;;;17.90;91.30;;;;;;5014918;28;20406;-70
2022/05/02 09:30:12;;;;;;;14.03;12.53;;;18.00;90.10;;;;;;5014555;28;20425;-70
2022/05/02 09:33:02;;;;;;;14.00;12.50;;;18.20;90.20;;;;;;5014817;28;20835;-69
2022/05/02 09:35:43;;;;;;;14.17;12.87;;;18.50;91.50;;;;;;5015402;28;20418;-70
2022/05/02 09:38:25;;;;;;;14.33;13.03;;;18.70;89.10;;;;;;5015206;28;20453;-70
2022/05/02 09:40:59;;;;;;;14.10;12.80;;;18.70;85.40;;;;;;5014944;28;20429;-70
2022/05/02 09:49:38;;;;;;;20.10;13.30;;;18.90;83.00;;;;;;5013564;28;20872;-70
2022/05/02 09:52:07;;;;;;;14.87;11.97;;;19.00;80.80;;;;;;5014719;28;20898;-69
2022/05/02 09:58:26;;;;;;;12.97;11.77;;;19.10;80.00;;;;;;5014301;28;20453;-69
2022/05/02 10:01:07;;;;;;;13.47;12.17;;;19.10;81.30;;;;;;5014314;28;20761;-70
2022/05/02 10:03:37;;;;;;;13.70;12.50;;;19.20;84.30;;;;;;5014967;28;20461;-70
2022/05/02 10:06:04;;;;;;;14.10;12.77;;;19.30;81.70;;;;;;5014587;28;20399;-70
2022/05/02 10:08:33;;;;;;;13.20;12.00;;;19.50;80.20;;;;;;5014665;28;20464;-70
2022/05/02 10:11:11;;;;;;;13.40;11.83;;;19.60;85.80;;;;;;5014054;28;20458;-70
2022/05/02 10:14:00;;;;;;;14.07;12.80;;;19.70;79.20;;;;;;5014470;28;20444;-70
2022/05/02 10:16:29;;;;;;;15.23;12.93;;;19.80;80.00;;;;;;5014621;28;20398;-70
2022/05/02 10:19:16;;;;;;;13.60;12.30;;;20.00;81.60;;;;;;5013650;28;20469;-70
2022/05/02 10:22:11;;;;;;;14.20;13.00;;;20.20;80.40;;;;;;5012642;28;20434;-70
2022/05/02 10:24:59;;;;;;;15.03;13.70;;;20.40;80.90;;;;;;5013176;28;20422;-70
2022/05/02 10:27:47;;;;;;;14.37;13.13;;;20.50;76.70;;;;;;5014148;28;20916;-70
2022/05/02 10:30:13;;;;;;;13.60;12.50;;;20.50;74.60;;;;;;5014316;28;20409;-70
2022/05/02 10:32:48;;;;;;;14.17;12.70;;;20.60;73.90;;;;;;5014175;28;20454;-77
2022/05/02 10:35:15;;;;;;;13.80;12.70;;;20.50;74.30;;;;;;5014200;28;20418;-70
2022/05/02 10:37:48;;;;;;;13.63;12.50;;;20.50;75.30;;;;;;5013486;28;20545;-71
2022/05/02 10:40:16;;;;;;;14.40;13.17;;;20.50;75.30;;;;;;5013880;28;20421;-70
2022/05/02 10:42:50;;;;;;;13.73;12.43;;;20.70;76.10;;;;;;5013441;28;20422;-70
2022/05/02 10:45:16;;;;;;;16.23;13.47;;;20.90;76.90;;;;;;5013784;28;20484;-70
2022/05/02 10:47:50;;;;;;;14.23;12.90;;;21.00;74.90;;;;;;5013318;28;20525;-70
2022/05/02 10:50:19;;;;;;;14.57;13.27;;;21.10;72.50;;;;;;5014249;28;20520;-70
2022/05/02 10:53:22;;;;;;;14.20;12.83;;;21.10;76.80;;;;;;5012871;28;20424;-70
2022/05/02 10:56:19;;;;;;;16.50;15.03;;;21.30;78.50;;;;;;5013219;28;20414;-70
2022/05/02 10:58:46;;;;;;;15.70;14.20;;;21.50;76.30;;;;;;5013170;28;20960;-70
2022/05/02 11:01:37;;;;;;;14.30;13.00;;;21.60;73.50;;;;;;5013566;28;20572;-70
2022/05/02 11:04:31;;;;;;;14.63;13.23;;;21.70;75.60;;;;;;5013126;28;20513;-70
2022/05/02 11:07:38;;;;;;;13.30;12.10;;;21.80;74.30;;;;;;5012972;28;20918;-70
2022/05/02 11:10:08;;;;;;;14.53;13.20;;;21.90;75.10;;;;;;4971444;28;20436;-70
2022/05/02 11:13:00;;;;;;;14.30;13.10;;;22.10;71.70;;;;;;5006086;28;20429;-70
2022/05/02 11:15:35;;;;;;;15.47;14.00;;;21.90;70.00;;;;;;5013509;28;20406;-70
2022/05/02 11:21:45;;;;;;;14.00;12.70;;;22.00;69.60;;;;;;4987074;28;20765;-70
2022/05/02 11:24:36;;;;;;;14.47;13.17;;;22.00;71.30;;;;;;5013505;28;20407;-70
2022/05/02 11:27:17;;;;;;;12.90;11.90;;;22.00;70.70;;;;;;5012418;28;20920;-70
2022/05/02 11:30:06;;;;;;;13.87;12.60;;;22.10;73.00;;;;;;5012720;28;20426;-74
2022/05/02 11:32:53;;;;;;;15.30;14.00;;;22.30;72.20;;;;;;5012990;28;20914;-70
2022/05/02 11:35:28;;;;;;;14.47;13.27;;;22.30;66.80;;;;;;5013199;28;20410;-70
2022/05/02 11:38:24;;;;;;;14.27;12.77;;;22.20;67.20;;;;;;5011471;28;20476;-70
2022/05/02 11:41:15;;;;;;;16.20;14.67;;;22.10;68.80;;;;;;5012754;28;20394;-70
2022/05/02 11:43:43;;;;;;;14.00;12.80;;;22.10;69.40;;;;;;5013102;28;20426;-70
2022/05/02 11:46:26;;;;;;;16.87;15.23;;;22.20;70.40;;;;;;5013045;28;20450;-70
2022/05/02 11:49:17;;;;;;;13.40;12.30;;;22.20;67.20;;;;;;5011917;28;20531;-70
2022/05/02 11:51:46;;;;;;;15.20;14.10;;;22.30;69.10;;;;;;5012627;28;20415;-74
2022/05/02 11:54:39;;;;;;;12.20;11.20;;;22.40;69.60;;;;;;5008514;28;20442;-70
2022/05/02 11:57:25;;;;;;;14.37;13.00;;;22.50;68.20;;;;;;5011711;28;20440;-70
2022/05/02 11:59:54;;;;;;;13.50;12.40;;;22.50;65.10;;;;;;5013672;28;20465;-70
2022/05/02 12:02:38;;;;;;;12.80;11.70;;;22.60;68.30;;;;;;5011786;28;20431;-70
2022/05/02 12:05:14;;;;;;;16.13;15.00;;;22.70;68.30;;;;;;5011883;28;20762;-71
2022/05/02 12:07:40;;;;;;;14.53;13.30;;;22.80;66.70;;;;;;5011874;28;20785;-68
2022/05/02 12:10:09;;;;;;;12.50;11.50;;;22.90;65.50;;;;;;5012053;28;20445;-68
2022/05/02 12:12:36;;;;;;;13.37;12.17;;;22.90;64.00;;;;;;5015243;28;20803;-69
2022/05/02 12:15:02;;;;;;;13.63;12.33;;;23.00;66.30;;;;;;5014441;28;20429;-68
2022/05/02 12:17:28;;;;;;;12.47;11.40;;;23.10;66.30;;;;;;5015631;28;20472;-68
2022/05/02 12:19:53;;;;;;;13.37;12.37;;;23.10;65.10;;;;;;5015646;28;20179;-68
2022/05/02 12:22:26;;;;;;;13.33;12.07;;;23.00;62.70;;;;;;5016147;28;20187;-70
2022/05/02 12:25:01;;;;;;;14.50;13.20;;;22.90;60.50;;;;;;5015452;28;20261;-71
2022/05/02 12:27:29;;;;;;;14.70;13.40;;;22.80;63.00;;;;;;5015895;28;20412;-72
2022/05/02 12:30:01;;;;;;;12.50;11.23;;;22.90;62.20;;;;;;5015352;28;20434;-73
2022/05/02 12:32:31;;;;;;;12.87;11.87;;;23.00;64.00;;;;;;5015203;28;20500;-73
2022/05/02 12:34:57;;;;;;;14.00;12.70;;;23.10;63.70;;;;;;5013397;28;20440;-72
2022/05/02 12:37:36;;;;;;;11.87;10.97;;;23.10;63.00;;;;;;5010910;28;20425;-72
2022/05/02 12:40:08;;;;;;;14.47;13.27;;;23.10;64.80;;;;;;5031154;28;20447;-69
2022/05/02 12:42:54;;;;;;;13.87;12.77;;;23.20;63.10;;;;;;5035893;28;20464;-69
2022/05/02 12:45:23;;;;;;;11.77;10.80;;;23.20;63.40;;;;;;5035746;28;20401;-71
2022/05/02 12:48:07;;;;;;;14.77;13.60;;;23.20;65.10;;;;;;5035410;28;20432;-73
2022/05/02 12:50:44;;;;;;;12.53;11.43;;;23.20;65.30;;;;;;5035688;28;20513;-71
2022/05/02 12:56:12;;;;;;;13.03;11.83;;;23.40;62.30;;;;;;5035313;28;20401;-71
2022/05/02 13:01:29;;;;;;;14.30;13.00;;;23.20;61.00;;;;;;5035859;28;20401;-71
2022/05/02 13:03:57;;;;;;;14.73;13.20;;;22.90;61.30;;;;;;5035102;28;20503;-71
2022/05/02 13:06:23;;;;;;;12.23;11.13;;;22.70;62.20;;;;;;5017779;28;20924;-71
2022/05/02 13:08:50;;;;;;;14.13;12.90;;;22.60;64.10;;;;;;5034650;28;20503;-69
2022/05/02 13:11:21;;;;;;;13.57;12.47;;;22.60;66.60;;;;;;5034239;28;20431;-71
2022/05/02 13:13:56;;;;;;;13.70;12.50;;;22.70;63.90;;;;;;5034334;28;20443;-71
2022/05/02 13:16:26;;;;;;;13.60;12.37;;;22.80;66.40;;;;;;5017215;28;20424;-71
2022/05/02 13:18:53;;;;;;;13.03;11.93;;;22.80;63.50;;;;;;5032863;28;20829;-71
2022/05/02 13:21:20;;;;;;;14.53;13.23;;;22.70;61.60;;;;;;5035064;28;20499;-71
2022/05/02 13:23:48;;;;;;;12.00;10.93;;;22.60;62.30;;;;;;5033725;28;20896;-71
2022/05/02 13:26:37;;;;;;;13.50;12.30;;;22.50;62.80;;;;;;5035186;28;20448;-71
2022/05/02 13:29:15;;;;;;;12.93;11.83;;;22.40;64.40;;;;;;5034441;28;20413;-71
2022/05/02 13:31:44;;;;;;;13.00;12.00;;;22.30;61.40;;;;;;5035281;28;20405;-71
2022/05/02 13:34:54;;;;;;;13.27;12.00;;;22.10;62.60;;;;;;5034657;28;20433;-71
2022/05/02 13:37:41;;;;;;;16.43;12.60;;;22.10;65.10;;;;;;5034549;28;20886;-71